Time;durP1;ratioP1;P1;durP2;ratioP2;P2;SDS_P1;SDS_P2;PMS_P1;PMS_P2;Temp;Humidity;BMP_temperature;BMP_pressure;BME280_temperature;BME280_humidity;BME280_pressure;Samples;Min_cycle;Max_cycle;Signal;HPM_P1;HPM_P2
2022/11/15 00:00:20;;;;;;;71.70;40.10;;;;;;;0.11;79.62;101858.91;1786993;80;21093;-85
2022/11/15 00:03:06;;;;;;;66.70;38.10;;;;;;;0.10;79.77;101867.08;1786905;80;20986;-86
2022/11/15 00:05:51;;;;;;;77.50;39.80;;;;;;;0.12;79.85;101860.65;1786929;80;20986;-87
2022/11/15 00:08:37;;;;;;;57.70;35.85;;;;;;;0.13;79.91;101858.48;1786965;79;20887;-88
2022/11/15 00:11:22;;;;;;;68.95;37.33;;;;;;;0.11;79.66;101860.20;1787144;79;20955;-87
2022/11/15 00:14:07;;;;;;;66.42;39.08;;;;;;;0.13;79.64;101859.78;1786987;80;21542;-86
2022/11/15 00:16:52;;;;;;;;;;;;;;;0.16;79.65;101864.97;1789696;80;21002;-88
2022/11/15 00:19:37;;;;;;;71.67;38.02;;;;;;;0.18;79.58;101860.24;1787087;80;20098;-86
2022/11/15 00:22:22;;;;;;;73.85;39.58;;;;;;;0.16;79.31;101850.34;1789080;77;20896;-85
2022/11/15 00:25:08;;;;;;;73.37;40.15;;;;;;;0.15;79.19;101856.34;1789467;78;20939;-87
2022/11/15 00:27:58;;;;;;;82.47;41.48;;;;;;;0.15;79.03;101852.47;1789360;77;20966;-85
2022/11/15 00:30:43;;;;;;;71.17;39.33;;;;;;;0.13;78.92;101857.20;1788816;78;20992;-87
2022/11/15 00:33:30;;;;;;;80.57;41.92;;;;;;;0.10;78.88;101859.34;1787085;80;20911;-85
2022/11/15 00:36:17;;;;;;;73.02;38.90;;;;;;;0.09;78.86;101855.46;1786981;80;20892;-87
2022/11/15 00:39:05;;;;;;;73.57;39.05;;;;;;;0.07;78.63;101861.92;1787183;80;20927;-87
2022/11/15 00:41:53;;;;;;;61.42;31.40;;;;;;;0.01;78.30;101863.19;1787118;80;21248;-86
2022/11/15 00:44:40;;;;;;;55.33;32.93;;;;;;;-0.06;78.62;101857.58;1786660;79;20895;-87
2022/11/15 00:47:24;;;;;;;62.38;34.73;;;;;;;-0.05;79.22;101853.70;1787326;80;20963;-87
2022/11/15 00:50:10;;;;;;;58.70;35.03;;;;;;;-0.07;78.95;101859.70;1786987;79;20919;-87
2022/11/15 00:52:55;;;;;;;60.60;32.75;;;;;;;-0.08;79.23;101854.13;1786997;80;20915;-86
2022/11/15 00:55:41;;;;;;;58.80;35.30;;;;;;;-0.07;79.20;101855.84;1786974;80;21145;-86
2022/11/15 00:58:28;;;;;;;68.52;37.45;;;;;;;-0.08;79.05;101846.40;1786886;80;20869;-87
2022/11/15 01:01:14;;;;;;;65.17;36.05;;;;;;;-0.09;79.11;101849.81;1786907;80;20915;-87
2022/11/15 01:04:00;;;;;;;60.85;38.85;;;;;;;-0.13;79.13;101845.09;1787035;80;20957;-87
2022/11/15 01:06:45;;;;;;;66.35;37.15;;;;;;;-0.14;79.17;101846.36;1787011;80;21401;-87
2022/11/15 01:09:30;;;;;;;63.25;36.40;;;;;;;-0.16;79.06;101847.64;1786921;79;21145;-88
2022/11/15 01:12:16;;;;;;;66.57;38.42;;;;;;;-0.17;79.03;101845.08;1786935;80;20912;-87
2022/11/15 01:15:02;;;;;;;70.35;35.98;;;;;;;-0.18;78.97;101840.76;1786886;80;21022;-87
2022/11/15 01:17:47;;;;;;;65.72;35.68;;;;;;;-0.22;78.90;101842.05;1786827;79;20876;-87
2022/11/15 01:20:31;;;;;;;60.70;33.78;;;;;;;-0.23;78.79;101837.73;1787163;80;20967;-88
2022/11/15 01:23:17;;;;;;;70.83;35.43;;;;;;;-0.27;78.67;101839.89;1787358;79;21287;-88
2022/11/15 01:26:03;;;;;;;;;;;;;;;-0.31;78.59;101845.88;1789704;79;20922;-87
2022/11/15 01:28:49;;;;;;;61.42;32.60;;;;;;;-0.35;78.56;101840.70;1788142;80;20118;-86
2022/11/15 01:32:33;;;;;;;55.95;31.27;;;;;;;-0.35;78.60;101837.69;1816992;79;22657;-86
2022/11/15 01:35:19;;;;;;;54.95;32.17;;;;;;;-0.43;78.67;101839.36;1790390;80;20891;-86
2022/11/15 01:38:07;;;;;;;57.90;31.80;;;;;;;-0.44;78.71;101830.77;1790056;80;21212;-86
2022/11/15 01:40:52;;;;;;;64.55;32.58;;;;;;;-0.46;78.71;101833.77;1790079;80;20939;-86
2022/11/15 01:43:40;;;;;;;59.05;30.05;;;;;;;-0.48;78.75;101840.63;1790076;80;20911;-87
2022/11/15 01:46:31;;;;;;;72.32;36.60;;;;;;;-0.51;78.65;101839.73;1789935;80;21405;-86
2022/11/15 01:49:20;;;;;;;69.07;34.90;;;;;;;-0.55;78.69;101841.45;1789807;80;20915;-86
2022/11/15 01:52:10;;;;;;;66.57;33.35;;;;;;;-0.57;78.76;101849.59;1789762;80;21858;-86
2022/11/15 01:55:04;;;;;;;71.47;37.58;;;;;;;-0.58;78.86;101854.30;1789666;80;20936;-86
2022/11/15 01:57:53;;;;;;;67.00;33.10;;;;;;;-0.59;78.84;101858.17;1789780;80;21030;-87
2022/11/15 02:00:38;;;;;;;59.60;33.83;;;;;;;-0.60;78.87;101861.19;1789672;79;20923;-86
2022/11/15 02:03:23;;;;;;;60.52;32.40;;;;;;;-0.60;78.86;101850.87;1764104;80;26286;-87
2022/11/15 02:06:08;;;;;;;73.55;36.63;;;;;;;-0.58;78.74;101855.59;1789791;79;21251;-84
2022/11/15 02:08:56;;;;;;;60.15;33.83;;;;;;;-0.59;78.72;101860.31;1791591;79;20857;-85
2022/11/15 02:11:41;;;;;;;74.27;38.73;;;;;;;-0.59;78.94;101860.31;1789858;79;20966;-87
2022/11/15 02:14:28;;;;;;;67.37;36.63;;;;;;;-0.54;79.22;101863.77;1789836;80;20896;-86
2022/11/15 02:17:53;;;;;;;68.65;36.03;;;;;;;-0.50;79.05;101857.79;1789698;79;20865;-85
2022/11/15 02:21:10;;;;;;;78.02;40.15;;;;;;;-0.49;78.89;101858.64;1789684;80;21245;-86
2022/11/15 02:24:16;;;;;;;80.57;38.08;;;;;;;-0.46;79.11;101855.67;1789628;80;20967;-86
2022/11/15 02:27:38;;;;;;;61.80;33.65;;;;;;;-0.38;79.23;101867.30;1661070;85;21547;-87
2022/11/15 02:30:38;;;;;;;63.90;33.53;;;;;;;-0.35;79.12;101865.19;1660894;86;20912;-87
2022/11/15 02:33:50;;;;;;;57.45;32.17;;;;;;;-0.35;79.28;101858.30;1661010;86;20984;-86
2022/11/15 02:37:02;;;;;;;63.68;31.70;;;;;;;-0.29;79.39;101857.46;1660769;86;21527;-85
2022/11/15 02:39:55;;;;;;;66.62;36.17;;;;;;;-0.25;79.46;101857.48;1652347;86;21525;-86
2022/11/15 02:45:52;;;;;;;54.18;30.20;;;;;;;-0.09;79.34;101854.56;1660484;86;21062;-87
2022/11/15 02:48:37;;;;;;;61.55;33.50;;;;;;;-0.04;79.40;101854.14;1660420;85;20928;-86
2022/11/15 02:51:23;;;;;;;61.48;31.57;;;;;;;0.07;79.36;101846.86;1660404;86;21172;-86
2022/11/15 02:54:15;;;;;;;58.20;31.30;;;;;;;0.12;79.25;101844.73;1660496;86;21097;-87
2022/11/15 02:57:08;;;;;;;74.82;36.13;;;;;;;0.16;79.21;101847.77;1660597;85;21036;-85
2022/11/15 03:00:04;;;;;;;96.12;39.48;;;;;;;0.20;79.26;101844.74;1661846;85;20991;-83
2022/11/15 03:03:15;;;;;;;89.95;38.10;;;;;;;0.20;79.36;101852.08;1730199;80;20928;-85
2022/11/15 03:06:24;;;;;;;79.20;36.23;;;;;;;0.20;79.78;101855.06;1764770;80;21146;-86
2022/11/15 03:09:23;;;;;;;123.67;37.28;;;;;;;0.23;80.14;101851.22;1790905;80;20920;-85
2022/11/15 03:12:16;;;;;;;150.57;36.25;;;;;;;0.24;80.26;101855.95;1791872;80;20915;-87
2022/11/15 03:15:31;;;;;;;127.50;34.40;;;;;;;0.20;80.63;101852.08;1789362;80;21089;-87
2022/11/15 03:18:21;;;;;;;135.28;36.93;;;;;;;0.19;81.08;101855.50;1789868;80;20880;-87
2022/11/15 03:21:08;;;;;;;151.15;35.65;;;;;;;0.24;81.63;101855.51;1789071;80;21493;-86
2022/11/15 03:23:55;;;;;;;146.80;36.58;;;;;;;0.27;82.06;101850.78;1788945;80;21437;-87
2022/11/15 03:26:40;;;;;;;119.17;34.83;;;;;;;0.29;82.49;101855.11;1789068;80;21533;-87
2022/11/15 03:29:36;;;;;;;119.93;35.38;;;;;;;0.31;82.76;101853.80;1790357;77;20951;-86
2022/11/15 03:32:23;;;;;;;112.90;35.48;;;;;;;0.31;83.04;101858.56;1788061;78;20873;-86
2022/11/15 03:35:12;;;;;;;82.20;31.33;;;;;;;0.33;83.31;101855.97;1786164;78;21193;-85
2022/11/15 03:38:26;;;;;;;94.50;34.73;;;;;;;0.33;83.45;101849.08;1786429;78;21034;-86
2022/11/15 03:41:30;;;;;;;75.35;30.12;;;;;;;0.34;83.46;101853.83;1785655;79;21441;-86
2022/11/15 03:44:39;;;;;;;46.58;29.12;;;;;;;0.31;83.47;101844.38;1751285;80;20980;-87
2022/11/15 03:47:42;;;;;;;50.20;28.92;;;;;;;0.31;83.54;101843.08;1783905;80;21461;-88
2022/11/15 03:50:26;;;;;;;40.43;25.82;;;;;;;0.31;83.52;101844.78;1786163;80;21936;-86
2022/11/15 03:53:12;;;;;;;;;;;;;;;0.28;83.36;101848.65;1786823;80;20944;-87
2022/11/15 03:55:58;;;;;;;54.90;29.55;;;;;;;0.22;83.13;101849.48;1783793;80;20077;-87
2022/11/15 03:58:42;;;;;;;63.70;31.90;;;;;;;0.15;83.02;101851.19;1783672;80;21037;-87
2022/11/15 04:01:27;;;;;;;;;;;;;;;0.10;82.90;101854.63;1786447;80;20884;-90
2022/11/15 04:04:12;;;;;;;45.80;26.77;;;;;;;0.02;82.74;101853.29;1784125;80;21175;-88
2022/11/15 04:06:59;;;;;;;54.55;29.05;;;;;;;-0.05;82.79;101851.55;1783829;80;21560;-88
2022/11/15 04:10:05;;;;;;;84.03;46.50;;;;;;;-0.09;82.81;101848.52;1783710;80;20936;-87
2022/11/15 04:12:50;;;;;;;62.83;34.58;;;;;;;-0.13;82.70;101846.81;1784775;80;20983;-86
2022/11/15 04:15:35;;;;;;;63.42;33.48;;;;;;;-0.19;82.68;101848.92;1783804;80;21405;-88
2022/11/15 04:18:21;;;;;;;48.45;30.35;;;;;;;-0.21;82.72;101844.19;1783784;80;21154;-88
2022/11/15 04:24:12;;;;;;;56.73;29.50;;;;;;;-0.27;82.64;101832.16;1783651;80;20972;-90
2022/11/15 04:26:58;;;;;;;55.80;33.38;;;;;;;-0.32;82.66;101829.11;1783650;80;20907;-89
2022/11/15 04:29:44;;;;;;;54.93;30.32;;;;;;;-0.38;82.69;101823.48;1783677;80;20880;-87
2022/11/15 04:32:30;;;;;;;58.45;31.62;;;;;;;-0.42;82.78;101823.91;1778502;80;21108;-90
2022/11/15 04:35:15;;;;;;;58.73;31.10;;;;;;;-0.46;82.71;101817.02;1775308;80;20889;-88
2022/11/15 04:38:04;;;;;;;61.40;31.75;;;;;;;-0.48;82.83;101813.57;1775422;80;20931;-88
2022/11/15 04:40:49;;;;;;;55.23;31.70;;;;;;;-0.51;82.66;101811.39;1775540;80;20948;-87
2022/11/15 04:43:35;;;;;;;56.60;31.52;;;;;;;-0.58;82.39;101813.08;1775482;80;21385;-91
2022/11/15 04:46:20;;;;;;;60.95;32.53;;;;;;;-0.65;82.25;101815.19;1731697;79;21260;-88
2022/11/15 04:49:07;;;;;;;53.60;30.60;;;;;;;-0.69;82.22;101806.61;1702552;84;21029;-88
2022/11/15 04:51:51;;;;;;;58.70;33.20;;;;;;;-0.71;82.12;101810.00;1702816;84;20936;-88
2022/11/15 04:54:36;;;;;;;61.90;33.65;;;;;;;-0.72;82.08;101812.16;1702521;84;21453;-88
2022/11/15 04:57:22;;;;;;;59.18;33.35;;;;;;;-0.71;82.07;101806.13;1702777;84;20921;-88
2022/11/15 05:00:11;;;;;;;53.95;32.60;;;;;;;-0.71;81.96;101807.02;1702542;84;21186;-89
2022/11/15 05:06:01;;;;;;;49.80;30.72;;;;;;;-0.69;82.00;101807.89;1702994;84;20957;-89
2022/11/15 05:08:46;;;;;;;28.40;18.02;;;;;;;-0.67;82.40;101811.34;1702957;84;20988;-88
2022/11/15 05:11:35;;;;;;;51.90;28.77;;;;;;;-0.64;82.59;101811.34;1702810;84;20964;-89
2022/11/15 05:14:20;;;;;;;51.83;30.52;;;;;;;-0.55;83.45;101808.39;1703081;84;21272;-87
2022/11/15 05:17:05;;;;;;;44.50;27.58;;;;;;;-0.46;83.52;101814.44;1703406;84;20956;-89
2022/11/15 05:19:51;;;;;;;33.45;20.65;;;;;;;-0.42;83.09;101816.19;1702735;84;20869;-90
2022/11/15 05:22:37;;;;;;;36.83;22.65;;;;;;;-0.37;83.14;101818.78;1703080;84;20976;-88
2022/11/15 05:25:23;;;;;;;40.33;25.80;;;;;;;-0.31;83.49;101814.95;1702936;84;20925;-90
2022/11/15 05:28:08;;;;;;;43.00;26.42;;;;;;;-0.22;83.56;101811.11;1703703;84;21174;-90
2022/11/15 05:31:04;;;;;;;52.17;30.52;;;;;;;-0.15;83.41;101817.16;1704373;84;20901;-91
2022/11/15 05:33:51;;;;;;;39.30;22.30;;;;;;;-0.09;83.51;101819.77;1704061;84;21032;-90
2022/11/15 05:36:42;;;;;;;42.33;20.80;;;;;;;-0.03;83.54;101818.91;1703903;84;20988;-88
2022/11/15 05:39:27;;;;;;;42.20;25.12;;;;;;;0.05;83.74;101818.51;1702902;84;21503;-88
2022/11/15 05:42:14;;;;;;;33.58;19.87;;;;;;;0.12;83.79;101825.83;1702835;84;21173;-89
2022/11/15 05:44:59;;;;;;;32.90;22.93;;;;;;;0.20;83.95;101825.00;1702602;84;21008;-89
2022/11/15 05:47:44;;;;;;;32.03;21.85;;;;;;;0.30;84.06;101826.30;1702190;84;20909;-88
2022/11/15 05:50:30;;;;;;;24.27;17.50;;;;;;;0.38;84.24;101826.75;1702252;84;20977;-88
2022/11/15 05:53:16;;;;;;;25.77;15.55;;;;;;;0.47;84.29;101827.19;1702683;84;20973;-89
2022/11/15 05:56:03;;;;;;;22.65;13.83;;;;;;;0.57;84.38;101821.59;1702135;84;21233;-89
2022/11/15 05:58:50;;;;;;;23.47;16.00;;;;;;;0.69;84.44;101824.20;1702218;84;21044;-88
2022/11/15 06:01:38;;;;;;;24.25;15.43;;;;;;;0.81;84.40;101822.04;1703073;84;20952;-86
2022/11/15 06:13:54;;;;;;;21.80;14.30;;;;;;;1.29;83.79;101815.51;1755760;78;21018;-88
2022/11/15 06:16:49;;;;;;;19.12;14.70;;;;;;;1.42;83.71;101821.08;1757748;79;20940;-86
2022/11/15 06:19:40;;;;;;;20.25;14.05;;;;;;;1.54;83.60;101828.81;1754160;78;20867;-89
2022/11/15 06:28:17;;;;;;;21.85;12.85;;;;;;;2.08;83.43;101813.91;1706519;81;20957;-88
2022/11/15 06:31:12;;;;;;;15.18;11.70;;;;;;;2.27;83.12;101813.37;1692699;83;20936;-89
2022/11/15 06:34:21;;;;;;;19.07;12.50;;;;;;;2.46;82.76;101813.24;1637538;81;20976;-89
2022/11/15 06:40:13;;;;;;;24.85;14.90;;;;;;;2.84;81.99;101818.11;1696719;79;21143;-87
2022/11/15 06:43:38;;;;;;;22.20;13.98;;;;;;;3.05;81.29;101826.14;1609197;86;21323;-88
2022/11/15 06:46:27;;;;;;;21.27;13.55;;;;;;;3.30;80.24;101820.72;1573525;86;21415;-89
2022/11/15 06:49:31;;;;;;;21.97;13.08;;;;;;;3.50;79.35;101820.50;1523182;89;21045;-89
2022/11/15 06:52:22;;;;;;;20.12;12.47;;;;;;;3.68;78.76;101828.50;1449247;93;20988;-89
2022/11/15 06:55:21;;;;;;;18.77;13.35;;;;;;;3.87;78.27;101827.86;1441672;99;20981;-88
2022/11/15 06:58:15;;;;;;;24.70;16.93;;;;;;;4.05;77.56;101822.42;1374286;99;21164;-90
2022/11/15 07:04:26;;;;;;;26.15;14.40;;;;;;;4.44;76.17;101825.75;1364357;101;21036;-90
2022/11/15 07:23:01;;;;;;;21.97;12.45;;;;;;;5.47;70.71;101805.77;1463172;94;22967;-91
2022/11/15 07:25:50;;;;;;;29.48;13.50;;;;;;;5.63;69.97;101798.09;1529460;94;21311;-92
2022/11/15 07:28:35;;;;;;;24.95;14.87;;;;;;;5.72;68.83;101794.45;1530393;90;21010;-91
2022/11/15 07:31:21;;;;;;;25.90;14.87;;;;;;;5.77;68.08;101795.20;1600407;89;20959;-91
2022/11/15 07:34:06;;;;;;;26.02;14.10;;;;;;;5.87;68.08;101787.62;1601710;88;20936;-91
2022/11/15 07:36:52;;;;;;;23.45;14.78;;;;;;;5.97;66.98;101787.84;1600628;88;21647;-92
2022/11/15 07:39:39;;;;;;;31.48;15.72;;;;;;;6.02;66.48;101772.11;1601088;88;20912;-93
2022/11/15 07:45:29;;;;;;;25.20;13.93;;;;;;;6.14;65.57;101767.95;1612415;86;20892;-93
2022/11/15 07:48:14;;;;;;;26.60;14.38;;;;;;;6.20;65.44;101763.02;1662210;86;21575;-91
2022/11/15 07:50:59;;;;;;;;;;;;;;;6.31;65.00;101758.86;1666073;86;20991;-91
2022/11/15 07:53:44;;;;;;;24.60;13.60;;;;;;;6.40;64.72;101758.22;1664876;86;21239;-92
2022/11/15 07:56:30;;;;;;;28.45;13.72;;;;;;;6.47;64.29;101754.14;1650473;86;20897;-92
2022/11/15 07:59:16;;;;;;;25.02;12.68;;;;;;;6.58;63.81;101749.51;1660305;86;20911;-92
2022/11/15 08:02:02;;;;;;;25.10;15.08;;;;;;;6.66;63.45;101745.42;1724154;81;20912;-90
2022/11/15 08:04:47;;;;;;;21.33;11.53;;;;;;;6.75;62.90;101733.00;1787848;79;21310;-93
2022/11/15 08:07:33;;;;;;;21.57;10.80;;;;;;;6.82;62.48;101741.52;1754345;81;21168;-91
2022/11/15 08:10:20;;;;;;;23.27;13.40;;;;;;;6.87;62.03;101746.19;1789884;79;20931;-92
2022/11/15 08:13:09;;;;;;;27.10;14.23;;;;;;;6.96;62.11;101748.54;1754600;79;20908;-92
2022/11/15 08:16:01;;;;;;;25.15;13.60;;;;;;;7.09;62.00;101751.65;1789414;80;21377;-91
2022/11/15 08:18:46;;;;;;;18.02;10.53;;;;;;;7.16;61.43;101757.12;1789845;80;20879;-90
2022/11/15 08:21:35;;;;;;;18.32;10.55;;;;;;;7.19;60.62;101746.59;1754746;80;21159;-90
2022/11/15 08:24:21;;;;;;;20.85;12.35;;;;;;;7.17;60.53;101747.54;1802883;78;21377;-91
2022/11/15 08:27:14;;;;;;;17.82;11.43;;;;;;;7.21;60.92;101740.89;1783264;79;20877;-90
2022/11/15 08:29:56;;;;;;;25.40;12.40;;;;;;;7.33;60.72;101740.98;1819516;78;21060;-89
2022/11/15 08:32:42;;;;;;;19.30;10.82;;;;;;;7.36;60.74;101738.31;1782699;79;21057;-90
2022/11/15 08:35:28;;;;;;;18.87;10.98;;;;;;;7.37;60.52;101743.92;1819797;77;21147;-89
2022/11/15 08:38:13;;;;;;;16.70;10.40;;;;;;;7.34;60.58;101749.69;1783018;79;20951;-90
2022/11/15 08:41:04;;;;;;;19.57;11.95;;;;;;;7.32;60.60;101748.42;1819538;79;20852;-92
2022/11/15 08:43:48;;;;;;;14.95;10.70;;;;;;;7.26;60.94;101736.39;1783240;79;20892;-91
2022/11/15 08:46:34;;;;;;;15.45;10.95;;;;;;;7.22;60.76;101746.50;1819396;77;20931;-92
2022/11/15 08:49:20;;;;;;;15.50;11.30;;;;;;;7.15;61.09;101746.73;1783167;79;21179;-92
2022/11/15 08:52:05;;;;;;;14.25;9.90;;;;;;;7.06;61.12;101743.46;1764256;81;20912;-91
2022/11/15 08:54:50;;;;;;;19.92;11.90;;;;;;;6.98;61.49;101731.10;1820727;77;20879;-90
2022/11/15 08:57:36;;;;;;;24.00;13.38;;;;;;;6.96;61.74;101729.41;1782586;79;21017;-92
2022/11/15 09:00:23;;;;;;;16.30;9.98;;;;;;;6.91;61.61;101715.19;1818829;77;21054;-90
2022/11/15 09:03:09;;;;;;;19.62;11.55;;;;;;;6.84;61.98;101707.98;1819079;77;21860;-90
2022/11/15 09:06:00;;;;;;;11.40;6.95;;;;;;;6.83;62.23;101702.83;1772015;80;20987;-89
2022/11/15 09:08:46;;;;;;;11.50;6.37;;;;;;;6.82;62.32;101687.61;1818284;77;20920;-90
2022/11/15 09:11:31;;;;;;;9.13;6.42;;;;;;;6.79;62.07;101689.47;1818794;77;20837;-91
2022/11/15 09:14:16;;;;;;;8.10;6.15;;;;;;;6.78;62.18;101693.83;1820596;79;20971;-89
2022/11/15 09:17:03;;;;;;;14.68;6.42;;;;;;;6.76;62.20;101696.05;1820639;78;21077;-88
2022/11/15 09:19:48;;;;;;;14.00;7.15;;;;;;;6.70;62.38;101685.35;1820942;77;20876;-89
2022/11/15 09:22:36;;;;;;;16.17;9.73;;;;;;;6.68;62.47;101684.53;1821354;79;20935;-90
2022/11/15 09:25:22;;;;;;;13.68;6.97;;;;;;;6.67;62.66;101672.41;1824757;78;20927;-89
2022/11/15 09:28:08;;;;;;;12.82;6.40;;;;;;;6.70;62.92;101665.80;1825781;78;20833;-89
2022/11/15 09:30:59;;;;;;;13.53;8.18;;;;;;;6.72;63.03;101664.02;1794724;77;21413;-89
2022/11/15 09:33:46;;;;;;;13.50;7.58;;;;;;;6.74;63.43;101662.22;1789427;78;20948;-91
2022/11/15 09:36:32;;;;;;;11.50;6.72;;;;;;;6.77;63.61;101645.64;1825789;77;21168;-89
2022/11/15 09:39:17;;;;;;;10.03;6.97;;;;;;;6.79;63.78;101635.56;1826701;78;20919;-87
2022/11/15 09:42:51;;;;;;;11.12;7.28;;;;;;;6.81;63.70;101629.02;1824261;78;21460;-88
2022/11/15 09:46:03;;;;;;;13.43;7.20;;;;;;;6.83;63.75;101636.34;1826215;77;21104;-90
2022/11/15 09:48:58;;;;;;;10.23;5.60;;;;;;;6.85;63.19;101622.82;1819801;77;20942;-90
2022/11/15 09:51:51;;;;;;;11.12;5.95;;;;;;;6.88;63.02;101622.72;1752930;78;21133;-91
2022/11/15 09:54:37;;;;;;;12.35;6.03;;;;;;;6.91;63.23;101614.80;1656549;85;20970;-92
2022/11/15 09:57:18;;;;;;;9.33;6.33;;;;;;;6.94;63.15;101623.02;1686582;83;20914;-91
2022/11/15 10:00:12;;;;;;;11.00;7.50;;;;;;;6.98;63.03;101609.84;1684777;84;21228;-91
2022/11/15 10:03:09;;;;;;;11.68;6.25;;;;;;;7.06;62.88;101608.30;1654905;86;20904;-91
2022/11/15 10:05:49;;;;;;;10.53;6.12;;;;;;;7.22;62.31;101605.63;1662375;86;21038;-90
2022/11/15 10:08:57;;;;;;;10.15;6.10;;;;;;;7.50;61.92;101594.35;1661994;86;20986;-89
2022/11/15 10:11:27;;;;;;;9.40;6.20;;;;;;;7.82;61.43;101595.91;1661765;85;21418;-90
2022/11/15 10:13:58;;;;;;;8.88;5.05;;;;;;;8.17;59.97;101598.27;1662189;86;21316;-91
2022/11/15 10:16:54;;;;;;;9.20;5.83;;;;;;;8.45;59.41;101597.74;1662710;86;21401;-91
2022/11/15 10:19:53;;;;;;;11.12;7.10;;;;;;;8.85;59.38;101597.61;1662857;86;20995;-90
2022/11/15 10:22:50;;;;;;;7.75;5.70;;;;;;;9.46;57.13;101598.78;1662860;86;21024;-91
2022/11/15 10:25:25;;;;;;;6.95;4.92;;;;;;;10.07;55.31;101590.17;1645650;86;21470;-92
2022/11/15 10:28:18;;;;;;;12.23;4.67;;;;;;;10.61;53.48;101585.28;1662479;86;21259;-91
2022/11/15 10:30:53;;;;;;;6.70;4.22;;;;;;;10.88;52.37;101580.55;1659007;85;21774;-91
2022/11/15 10:33:35;;;;;;;6.17;4.90;;;;;;;10.94;51.35;101577.18;1639921;86;20959;-90
2022/11/15 10:36:15;;;;;;;4.72;4.30;;;;;;;10.88;51.43;101570.05;1663803;86;20902;-91
2022/11/15 10:38:53;;;;;;;8.03;4.83;;;;;;;10.75;51.23;101568.44;1667492;85;21028;-89
2022/11/15 10:41:34;;;;;;;7.08;5.28;;;;;;;10.61;51.52;101563.83;1687509;83;20973;-90
2022/11/15 10:44:19;;;;;;;5.75;4.35;;;;;;;10.52;51.76;101557.22;1687116;83;21000;-88
2022/11/15 10:46:58;;;;;;;9.55;6.33;;;;;;;10.41;51.71;101550.28;1687377;83;21087;-89
2022/11/15 10:49:29;;;;;;;5.55;4.28;;;;;;;10.27;52.15;101547.38;1670426;83;20930;-91
2022/11/15 10:52:19;;;;;;;5.33;3.92;;;;;;;10.14;52.22;101541.38;1685277;85;21390;-90
2022/11/15 10:55:18;;;;;;;7.55;4.78;;;;;;;10.07;52.46;101540.38;1685468;84;21408;-89
2022/11/15 10:57:54;;;;;;;8.05;4.35;;;;;;;9.95;52.44;101545.69;1685195;85;21221;-91
2022/11/15 11:00:29;;;;;;;6.40;4.12;;;;;;;9.77;52.38;101541.23;1684841;84;20981;-90
2022/11/15 11:03:01;;;;;;;7.62;5.35;;;;;;;9.63;52.83;101541.34;1684347;84;21303;-88
2022/11/15 11:05:38;;;;;;;4.22;3.83;;;;;;;9.55;53.28;101531.64;1685087;84;21009;-90
2022/11/15 11:08:17;;;;;;;7.53;4.83;;;;;;;9.49;53.31;101518.79;1685068;84;21102;-87
2022/11/15 11:10:56;;;;;;;8.28;5.35;;;;;;;9.41;53.43;101523.51;1685480;85;20934;-90
2022/11/15 11:13:26;;;;;;;5.92;3.85;;;;;;;9.32;53.76;101515.56;1657950;85;20902;-88
2022/11/15 11:16:26;;;;;;;5.35;4.00;;;;;;;9.27;53.89;101514.87;1684813;85;20961;-91
2022/11/15 11:19:32;;;;;;;6.47;5.05;;;;;;;9.15;53.96;101511.00;1684951;84;21360;-92
2022/11/15 11:22:31;;;;;;;7.65;4.55;;;;;;;9.04;54.32;101503.56;1684517;85;21966;-90
2022/11/15 11:25:23;;;;;;;6.95;4.30;;;;;;;8.99;54.52;101503.37;1685163;84;20993;-90
2022/11/15 11:28:28;;;;;;;5.85;4.10;;;;;;;8.89;54.39;101498.50;1644687;84;21455;-90
2022/11/15 11:31:27;;;;;;;7.08;4.67;;;;;;;8.82;54.73;101495.70;1684359;85;20945;-90
2022/11/15 11:34:15;;;;;;;10.03;4.72;;;;;;;8.86;54.78;101505.13;1685027;85;21043;-90
2022/11/15 11:37:27;;;;;;;16.10;9.65;;;;;;;8.88;54.59;101499.86;1685616;85;21926;-91
2022/11/15 11:40:39;;;;;;;10.48;6.50;;;;;;;8.90;54.55;101491.03;1655606;84;20953;-89
2022/11/15 11:43:26;;;;;;;11.55;4.67;;;;;;;8.93;54.55;101496.13;1683783;85;21057;-91
2022/11/15 11:46:25;;;;;;;6.35;4.15;;;;;;;8.99;54.34;101485.05;1685292;85;20946;-90
2022/11/15 11:49:10;;;;;;;6.85;4.17;;;;;;;9.06;54.10;101477.34;1685419;85;20919;-91
2022/11/15 11:51:42;;;;;;;6.20;4.28;;;;;;;9.14;53.99;101476.59;1678813;84;21261;-92
2022/11/15 11:54:21;;;;;;;6.50;4.15;;;;;;;9.24;53.79;101470.52;1652440;85;20968;-90
2022/11/15 11:56:48;;;;;;;5.40;4.10;;;;;;;9.30;53.59;101475.05;1652735;86;20885;-91
2022/11/15 11:59:41;;;;;;;4.03;3.58;;;;;;;9.37;53.19;101465.64;1652919;86;20965;-90
2022/11/15 12:02:22;;;;;;;3.17;2.62;;;;;;;9.46;53.37;101462.64;1652869;85;21501;-90
2022/11/15 12:04:52;;;;;;;7.45;3.05;;;;;;;9.64;53.12;101467.55;1650242;85;21138;-87
2022/11/15 12:07:25;;;;;;;5.55;3.95;;;;;;;9.78;52.67;101458.64;1653634;86;20976;-87
2022/11/15 12:10:14;;;;;;;5.33;3.20;;;;;;;9.88;52.63;101452.09;1652075;86;20869;-87
2022/11/15 12:13:13;;;;;;;4.95;3.50;;;;;;;9.96;52.45;101454.39;1652703;85;21438;-88
2022/11/15 12:16:03;;;;;;;10.72;8.23;;;;;;;9.98;51.97;101448.59;1652738;86;20960;-90
2022/11/15 12:18:29;;;;;;;5.87;3.70;;;;;;;9.93;52.16;101447.96;1654435;86;21173;-87
2022/11/15 12:21:05;;;;;;;4.80;3.85;;;;;;;9.87;51.81;101443.86;1653047;85;21407;-90
2022/11/15 12:23:37;;;;;;;4.80;3.87;;;;;;;9.72;51.92;101434.05;1651289;86;20904;-87
2022/11/15 12:26:13;;;;;;;6.00;3.70;;;;;;;9.60;52.41;101426.70;1653055;86;20912;-89
2022/11/15 12:28:51;;;;;;;10.63;5.20;;;;;;;9.52;52.63;101421.34;1654099;86;20928;-90
2022/11/15 12:31:38;;;;;;;8.48;4.35;;;;;;;9.45;52.83;101418.59;1654646;85;21259;-90
2022/11/15 12:34:24;;;;;;;10.38;5.20;;;;;;;9.37;53.16;101416.75;1654039;85;20928;-90
2022/11/15 12:36:51;;;;;;;11.70;6.00;;;;;;;9.32;53.38;101413.48;1653276;85;20999;-89
2022/11/15 12:39:18;;;;;;;7.78;4.67;;;;;;;9.29;53.60;101401.38;1654324;87;20884;-91
2022/11/15 12:42:05;;;;;;;7.67;5.22;;;;;;;9.25;53.44;101398.93;1655451;86;20916;-90
2022/11/15 12:44:41;;;;;;;8.60;5.42;;;;;;;9.15;53.67;101394.55;1655057;83;21178;-91
2022/11/15 12:47:24;;;;;;;10.53;7.20;;;;;;;9.09;53.92;101393.48;1655160;83;21015;-89
2022/11/15 12:49:51;;;;;;;11.88;6.40;;;;;;;9.05;54.22;101376.23;1667206;80;21404;-89
2022/11/15 12:52:18;;;;;;;14.47;7.80;;;;;;;9.02;54.37;101371.95;1748968;79;20933;-88
2022/11/15 12:54:57;;;;;;;11.97;7.03;;;;;;;8.99;54.42;101367.33;1772800;78;20909;-90
2022/11/15 12:57:38;;;;;;;11.43;6.20;;;;;;;8.92;54.54;101362.34;1749478;80;21182;-89
2022/11/15 13:00:27;;;;;;;18.50;10.20;;;;;;;8.84;54.62;101358.34;1770934;80;20933;-90
2022/11/15 13:03:19;;;;;;;11.10;7.87;;;;;;;8.76;54.92;101359.97;1770472;80;20979;-92
2022/11/15 13:05:54;;;;;;;17.57;10.08;;;;;;;8.66;55.04;101359.47;1770301;81;20971;-91
2022/11/15 13:08:38;;;;;;;15.45;9.20;;;;;;;8.58;55.29;101359.37;1747154;80;21414;-91
2022/11/15 13:11:49;;;;;;;14.73;7.17;;;;;;;8.49;55.46;101350.14;1770913;80;21253;-90
2022/11/15 13:14:55;;;;;;;17.90;8.78;;;;;;;8.39;55.78;101348.32;1701860;83;21501;-90
2022/11/15 13:17:33;;;;;;;14.25;8.58;;;;;;;8.30;56.16;101346.91;1702240;83;20897;-91
2022/11/15 13:20:14;;;;;;;16.37;10.48;;;;;;;8.23;56.48;101344.61;1702556;83;20901;-91
2022/11/15 13:23:12;;;;;;;25.30;13.15;;;;;;;8.15;56.80;101343.58;1702541;84;20921;-89
2022/11/15 13:26:03;;;;;;;12.35;7.62;;;;;;;8.05;57.15;101340.94;1702527;83;21094;-88
2022/11/15 13:28:40;;;;;;;12.18;6.97;;;;;;;7.94;57.54;101334.81;1702928;84;20913;-90
2022/11/15 13:31:26;;;;;;;17.92;9.30;;;;;;;7.84;57.87;101332.98;1701427;83;21041;-91
2022/11/15 13:33:56;;;;;;;32.38;20.57;;;;;;;7.76;58.15;101332.86;1701493;83;20965;-89
2022/11/15 13:36:35;;;;;;;20.08;10.32;;;;;;;7.70;58.46;101337.88;1701763;83;20953;-92
2022/11/15 13:39:05;;;;;;;26.00;14.13;;;;;;;7.63;58.72;101338.55;1679792;84;21130;-89
2022/11/15 13:41:35;;;;;;;22.45;12.23;;;;;;;7.59;58.97;101333.49;1702145;83;22219;-89
2022/11/15 13:44:03;;;;;;;18.40;11.35;;;;;;;7.55;59.14;101334.50;1701714;83;20937;-87